sensor_id;sensor_type;location;lat;lon;timestamp;P1;durP1;ratioP1;P2;durP2;ratioP2
19804;SDS011;10062;51.052;13.756;2023-06-14T00:00:35;5.93;;;2.43;;
19804;SDS011;10062;51.052;13.756;2023-06-14T00:03:11;4.77;;;2.57;;
19804;SDS011;10062;51.052;13.756;2023-06-14T00:05:47;5.33;;;2.40;;
19804;SDS011;10062;51.052;13.756;2023-06-14T00:08:19;4.27;;;2.10;;
19804;SDS011;10062;51.052;13.756;2023-06-14T00:10:54;5.77;;;2.30;;
19804;SDS011;10062;51.052;13.756;2023-06-14T00:13:25;5.23;;;2.60;;
19804;SDS011;10062;51.052;13.756;2023-06-14T00:15:57;5.60;;;2.13;;
19804;SDS011;10062;51.052;13.756;2023-06-14T00:18:29;5.37;;;2.13;;
19804;SDS011;10062;51.052;13.756;2023-06-14T00:21:00;4.77;;;2.73;;
19804;SDS011;10062;51.052;13.756;2023-06-14T00:23:34;6.03;;;2.50;;
19804;SDS011;10062;51.052;13.756;2023-06-14T00:26:07;5.37;;;2.47;;
19804;SDS011;10062;51.052;13.756;2023-06-14T00:28:39;4.60;;;2.03;;
19804;SDS011;10062;51.052;13.756;2023-06-14T00:31:11;6.53;;;2.20;;
19804;SDS011;10062;51.052;13.756;2023-06-14T00:33:42;4.23;;;2.40;;
19804;SDS011;10062;51.052;13.756;2023-06-14T00:36:16;5.50;;;2.37;;
19804;SDS011;10062;51.052;13.756;2023-06-14T00:38:48;3.63;;;1.90;;
19804;SDS011;10062;51.052;13.756;2023-06-14T00:41:21;5.00;;;2.40;;
19804;SDS011;10062;51.052;13.756;2023-06-14T00:43:52;3.93;;;2.37;;
19804;SDS011;10062;51.052;13.756;2023-06-14T00:46:26;3.77;;;2.10;;
19804;SDS011;10062;51.052;13.756;2023-06-14T00:48:58;4.73;;;2.00;;
19804;SDS011;10062;51.052;13.756;2023-06-14T00:51:32;4.03;;;2.17;;
19804;SDS011;10062;51.052;13.756;2023-06-14T00:54:03;7.47;;;2.27;;
19804;SDS011;10062;51.052;13.756;2023-06-14T00:56:37;12.67;;;2.57;;
19804;SDS011;10062;51.052;13.756;2023-06-14T00:59:09;5.07;;;2.10;;
19804;SDS011;10062;51.052;13.756;2023-06-14T01:01:41;3.17;;;2.07;;
19804;SDS011;10062;51.052;13.756;2023-06-14T01:04:13;4.93;;;2.27;;
19804;SDS011;10062;51.052;13.756;2023-06-14T01:06:48;5.17;;;2.10;;
19804;SDS011;10062;51.052;13.756;2023-06-14T01:09:27;4.17;;;2.03;;
19804;SDS011;10062;51.052;13.756;2023-06-14T01:12:07;3.83;;;2.43;;
19804;SDS011;10062;51.052;13.756;2023-06-14T01:14:42;5.23;;;2.20;;
19804;SDS011;10062;51.052;13.756;2023-06-14T01:17:15;5.10;;;2.50;;
19804;SDS011;10062;51.052;13.756;2023-06-14T01:19:47;5.47;;;2.93;;
19804;SDS011;10062;51.052;13.756;2023-06-14T01:22:19;4.30;;;2.37;;
19804;SDS011;10062;51.052;13.756;2023-06-14T01:24:52;4.83;;;2.43;;
19804;SDS011;10062;51.052;13.756;2023-06-14T01:27:25;3.57;;;2.00;;
19804;SDS011;10062;51.052;13.756;2023-06-14T01:29:59;4.17;;;1.93;;
19804;SDS011;10062;51.052;13.756;2023-06-14T01:32:32;6.30;;;2.77;;
19804;SDS011;10062;51.052;13.756;2023-06-14T01:35:05;4.47;;;2.20;;
19804;SDS011;10062;51.052;13.756;2023-06-14T01:37:37;5.37;;;2.63;;
19804;SDS011;10062;51.052;13.756;2023-06-14T01:40:12;5.37;;;2.40;;
19804;SDS011;10062;51.052;13.756;2023-06-14T01:42:46;3.87;;;2.10;;
19804;SDS011;10062;51.052;13.756;2023-06-14T01:45:19;5.97;;;2.50;;
19804;SDS011;10062;51.052;13.756;2023-06-14T01:47:53;3.70;;;2.20;;
19804;SDS011;10062;51.052;13.756;2023-06-14T01:50:27;6.30;;;2.40;;
19804;SDS011;10062;51.052;13.756;2023-06-14T01:53:01;5.60;;;2.57;;
19804;SDS011;10062;51.052;13.756;2023-06-14T01:55:34;4.33;;;2.10;;
19804;SDS011;10062;51.052;13.756;2023-06-14T01:58:10;4.53;;;2.20;;
19804;SDS011;10062;51.052;13.756;2023-06-14T02:00:42;5.13;;;2.70;;
19804;SDS011;10062;51.052;13.756;2023-06-14T02:03:15;3.97;;;2.20;;
19804;SDS011;10062;51.052;13.756;2023-06-14T02:05:46;3.50;;;2.13;;
19804;SDS011;10062;51.052;13.756;2023-06-14T02:08:18;8.43;;;2.77;;
19804;SDS011;10062;51.052;13.756;2023-06-14T02:10:51;4.77;;;2.70;;
19804;SDS011;10062;51.052;13.756;2023-06-14T02:13:25;7.03;;;3.07;;
19804;SDS011;10062;51.052;13.756;2023-06-14T02:15:57;5.37;;;2.80;;
19804;SDS011;10062;51.052;13.756;2023-06-14T02:18:29;4.73;;;2.20;;
19804;SDS011;10062;51.052;13.756;2023-06-14T02:21:02;6.90;;;3.00;;
19804;SDS011;10062;51.052;13.756;2023-06-14T02:23:34;6.00;;;2.70;;
19804;SDS011;10062;51.052;13.756;2023-06-14T02:26:07;5.17;;;2.33;;
19804;SDS011;10062;51.052;13.756;2023-06-14T02:28:38;5.90;;;3.03;;
19804;SDS011;10062;51.052;13.756;2023-06-14T02:31:12;4.23;;;2.60;;
19804;SDS011;10062;51.052;13.756;2023-06-14T02:33:44;4.70;;;2.30;;
19804;SDS011;10062;51.052;13.756;2023-06-14T02:36:17;7.97;;;2.27;;
19804;SDS011;10062;51.052;13.756;2023-06-14T02:38:50;4.57;;;2.40;;
19804;SDS011;10062;51.052;13.756;2023-06-14T02:41:25;7.60;;;3.20;;
19804;SDS011;10062;51.052;13.756;2023-06-14T02:43:57;4.20;;;2.60;;
19804;SDS011;10062;51.052;13.756;2023-06-14T02:46:29;6.90;;;2.70;;
19804;SDS011;10062;51.052;13.756;2023-06-14T02:49:01;4.47;;;2.50;;
19804;SDS011;10062;51.052;13.756;2023-06-14T02:51:33;6.37;;;2.67;;
19804;SDS011;10062;51.052;13.756;2023-06-14T02:54:05;4.53;;;2.33;;
19804;SDS011;10062;51.052;13.756;2023-06-14T02:56:38;5.27;;;2.67;;
19804;SDS011;10062;51.052;13.756;2023-06-14T02:59:11;5.23;;;2.83;;
19804;SDS011;10062;51.052;13.756;2023-06-14T03:01:43;3.90;;;2.40;;
19804;SDS011;10062;51.052;13.756;2023-06-14T03:04:18;5.10;;;2.70;;
19804;SDS011;10062;51.052;13.756;2023-06-14T03:06:50;6.10;;;2.30;;
19804;SDS011;10062;51.052;13.756;2023-06-14T03:09:24;6.53;;;3.00;;
19804;SDS011;10062;51.052;13.756;2023-06-14T03:11:57;4.97;;;2.70;;
19804;SDS011;10062;51.052;13.756;2023-06-14T03:14:29;5.33;;;2.93;;
19804;SDS011;10062;51.052;13.756;2023-06-14T03:17:01;4.50;;;2.50;;
19804;SDS011;10062;51.052;13.756;2023-06-14T03:19:36;4.20;;;2.60;;
19804;SDS011;10062;51.052;13.756;2023-06-14T03:22:09;5.03;;;2.50;;
19804;SDS011;10062;51.052;13.756;2023-06-14T03:24:42;6.90;;;2.87;;
19804;SDS011;10062;51.052;13.756;2023-06-14T03:27:19;6.93;;;3.13;;
19804;SDS011;10062;51.052;13.756;2023-06-14T03:29:51;4.90;;;2.60;;
19804;SDS011;10062;51.052;13.756;2023-06-14T03:32:23;4.67;;;2.87;;
19804;SDS011;10062;51.052;13.756;2023-06-14T03:34:55;4.03;;;2.50;;
19804;SDS011;10062;51.052;13.756;2023-06-14T03:37:28;5.60;;;2.63;;
19804;SDS011;10062;51.052;13.756;2023-06-14T03:40:00;4.83;;;2.80;;
19804;SDS011;10062;51.052;13.756;2023-06-14T03:42:42;6.40;;;3.50;;
19804;SDS011;10062;51.052;13.756;2023-06-14T03:45:14;4.23;;;2.53;;
19804;SDS011;10062;51.052;13.756;2023-06-14T03:47:46;4.70;;;3.00;;
19804;SDS011;10062;51.052;13.756;2023-06-14T03:50:18;4.37;;;2.77;;
19804;SDS011;10062;51.052;13.756;2023-06-14T03:52:50;5.97;;;2.90;;
19804;SDS011;10062;51.052;13.756;2023-06-14T03:55:23;24.50;;;5.80;;
19804;SDS011;10062;51.052;13.756;2023-06-14T03:57:59;4.10;;;2.37;;
19804;SDS011;10062;51.052;13.756;2023-06-14T04:00:31;5.17;;;3.30;;
19804;SDS011;10062;51.052;13.756;2023-06-14T04:03:03;6.37;;;3.77;;
19804;SDS011;10062;51.052;13.756;2023-06-14T04:05:35;5.37;;;2.57;;
19804;SDS011;10062;51.052;13.756;2023-06-14T04:08:07;4.03;;;2.70;;
19804;SDS011;10062;51.052;13.756;2023-06-14T04:10:41;5.50;;;2.90;;
19804;SDS011;10062;51.052;13.756;2023-06-14T04:13:14;5.10;;;2.67;;
19804;SDS011;10062;51.052;13.756;2023-06-14T04:15:46;4.83;;;3.20;;
19804;SDS011;10062;51.052;13.756;2023-06-14T04:18:24;6.70;;;4.13;;
19804;SDS011;10062;51.052;13.756;2023-06-14T04:20:56;10.43;;;4.97;;
19804;SDS011;10062;51.052;13.756;2023-06-14T04:23:29;13.57;;;6.60;;
19804;SDS011;10062;51.052;13.756;2023-06-14T04:26:04;9.37;;;5.10;;
19804;SDS011;10062;51.052;13.756;2023-06-14T04:28:37;6.53;;;3.93;;
19804;SDS011;10062;51.052;13.756;2023-06-14T04:31:11;8.83;;;5.10;;
19804;SDS011;10062;51.052;13.756;2023-06-14T04:33:42;8.23;;;4.57;;
19804;SDS011;10062;51.052;13.756;2023-06-14T04:36:20;6.97;;;3.83;;
19804;SDS011;10062;51.052;13.756;2023-06-14T04:38:53;6.43;;;3.47;;
19804;SDS011;10062;51.052;13.756;2023-06-14T04:41:27;6.37;;;3.63;;
19804;SDS011;10062;51.052;13.756;2023-06-14T04:44:02;5.33;;;3.20;;
19804;SDS011;10062;51.052;13.756;2023-06-14T04:46:39;8.50;;;3.60;;
19804;SDS011;10062;51.052;13.756;2023-06-14T04:49:19;8.00;;;3.87;;
19804;SDS011;10062;51.052;13.756;2023-06-14T04:51:53;6.13;;;3.43;;
19804;SDS011;10062;51.052;13.756;2023-06-14T04:54:29;6.17;;;2.97;;
19804;SDS011;10062;51.052;13.756;2023-06-14T04:57:04;6.87;;;3.70;;
19804;SDS011;10062;51.052;13.756;2023-06-14T04:59:38;7.33;;;4.03;;
19804;SDS011;10062;51.052;13.756;2023-06-14T05:02:09;7.97;;;3.40;;
19804;SDS011;10062;51.052;13.756;2023-06-14T05:04:41;6.53;;;3.50;;
19804;SDS011;10062;51.052;13.756;2023-06-14T05:07:13;9.53;;;4.63;;
19804;SDS011;10062;51.052;13.756;2023-06-14T05:09:46;5.50;;;3.13;;
19804;SDS011;10062;51.052;13.756;2023-06-14T05:12:17;6.73;;;3.30;;
19804;SDS011;10062;51.052;13.756;2023-06-14T05:14:51;10.20;;;4.30;;
19804;SDS011;10062;51.052;13.756;2023-06-14T05:17:24;5.60;;;3.03;;
19804;SDS011;10062;51.052;13.756;2023-06-14T05:19:57;9.33;;;3.80;;
19804;SDS011;10062;51.052;13.756;2023-06-14T05:22:29;10.23;;;3.63;;
19804;SDS011;10062;51.052;13.756;2023-06-14T05:25:01;7.57;;;3.53;;
19804;SDS011;10062;51.052;13.756;2023-06-14T05:34:13;5.47;;;3.60;;
19804;SDS011;10062;51.052;13.756;2023-06-14T05:36:45;5.70;;;3.50;;
19804;SDS011;10062;51.052;13.756;2023-06-14T05:39:16;9.10;;;4.83;;
19804;SDS011;10062;51.052;13.756;2023-06-14T05:41:51;6.87;;;4.17;;
19804;SDS011;10062;51.052;13.756;2023-06-14T05:44:22;7.97;;;4.07;;
19804;SDS011;10062;51.052;13.756;2023-06-14T05:46:54;7.57;;;3.70;;
19804;SDS011;10062;51.052;13.756;2023-06-14T05:49:27;7.07;;;3.90;;
19804;SDS011;10062;51.052;13.756;2023-06-14T05:51:59;14.33;;;4.23;;
19804;SDS011;10062;51.052;13.756;2023-06-14T05:54:30;6.40;;;3.40;;
19804;SDS011;10062;51.052;13.756;2023-06-14T05:57:02;11.13;;;4.83;;
19804;SDS011;10062;51.052;13.756;2023-06-14T05:59:36;5.70;;;3.40;;
19804;SDS011;10062;51.052;13.756;2023-06-14T06:02:07;7.50;;;3.77;;
19804;SDS011;10062;51.052;13.756;2023-06-14T06:04:41;5.40;;;3.37;;
19804;SDS011;10062;51.052;13.756;2023-06-14T06:07:12;7.87;;;4.80;;
19804;SDS011;10062;51.052;13.756;2023-06-14T06:09:44;6.53;;;4.13;;
19804;SDS011;10062;51.052;13.756;2023-06-14T06:12:16;10.30;;;4.47;;
19804;SDS011;10062;51.052;13.756;2023-06-14T06:14:48;10.07;;;5.10;;
19804;SDS011;10062;51.052;13.756;2023-06-14T06:17:19;8.57;;;4.93;;
19804;SDS011;10062;51.052;13.756;2023-06-14T06:19:52;7.33;;;4.23;;
19804;SDS011;10062;51.052;13.756;2023-06-14T06:22:24;8.73;;;4.73;;
19804;SDS011;10062;51.052;13.756;2023-06-14T06:24:56;8.30;;;5.07;;
19804;SDS011;10062;51.052;13.756;2023-06-14T06:27:27;8.23;;;4.67;;
19804;SDS011;10062;51.052;13.756;2023-06-14T06:29:59;8.27;;;4.60;;
19804;SDS011;10062;51.052;13.756;2023-06-14T06:32:31;8.60;;;4.57;;
19804;SDS011;10062;51.052;13.756;2023-06-14T06:35:04;10.03;;;4.67;;
19804;SDS011;10062;51.052;13.756;2023-06-14T06:37:38;9.33;;;5.47;;
19804;SDS011;10062;51.052;13.756;2023-06-14T06:40:10;7.40;;;5.10;;
19804;SDS011;10062;51.052;13.756;2023-06-14T06:42:42;8.50;;;4.83;;
19804;SDS011;10062;51.052;13.756;2023-06-14T06:45:16;7.43;;;4.77;;
19804;SDS011;10062;51.052;13.756;2023-06-14T06:47:48;7.00;;;4.50;;
19804;SDS011;10062;51.052;13.756;2023-06-14T06:50:21;7.37;;;4.57;;
19804;SDS011;10062;51.052;13.756;2023-06-14T06:52:54;6.77;;;4.17;;
19804;SDS011;10062;51.052;13.756;2023-06-14T06:55:26;8.47;;;3.97;;
19804;SDS011;10062;51.052;13.756;2023-06-14T06:57:58;8.60;;;4.57;;
19804;SDS011;10062;51.052;13.756;2023-06-14T07:00:30;6.63;;;4.20;;
19804;SDS011;10062;51.052;13.756;2023-06-14T07:03:02;7.07;;;3.90;;
19804;SDS011;10062;51.052;13.756;2023-06-14T07:05:35;7.67;;;4.77;;
19804;SDS011;10062;51.052;13.756;2023-06-14T07:08:07;7.10;;;4.53;;
19804;SDS011;10062;51.052;13.756;2023-06-14T07:10:38;7.70;;;4.30;;
19804;SDS011;10062;51.052;13.756;2023-06-14T07:13:10;7.53;;;4.70;;
19804;SDS011;10062;51.052;13.756;2023-06-14T07:15:42;7.97;;;4.87;;
19804;SDS011;10062;51.052;13.756;2023-06-14T07:18:13;8.57;;;4.53;;
19804;SDS011;10062;51.052;13.756;2023-06-14T07:20:46;7.97;;;3.93;;
19804;SDS011;10062;51.052;13.756;2023-06-14T07:23:18;6.53;;;4.27;;
19804;SDS011;10062;51.052;13.756;2023-06-14T07:25:50;5.77;;;4.40;;
19804;SDS011;10062;51.052;13.756;2023-06-14T07:28:21;7.40;;;4.43;;
19804;SDS011;10062;51.052;13.756;2023-06-14T07:30:53;5.83;;;4.10;;
19804;SDS011;10062;51.052;13.756;2023-06-14T07:33:25;7.57;;;4.87;;
19804;SDS011;10062;51.052;13.756;2023-06-14T07:35:58;6.27;;;4.13;;
19804;SDS011;10062;51.052;13.756;2023-06-14T07:38:29;6.43;;;3.93;;
19804;SDS011;10062;51.052;13.756;2023-06-14T07:41:01;9.13;;;4.27;;
19804;SDS011;10062;51.052;13.756;2023-06-14T07:43:33;5.73;;;3.67;;
19804;SDS011;10062;51.052;13.756;2023-06-14T07:46:05;7.50;;;3.50;;
19804;SDS011;10062;51.052;13.756;2023-06-14T07:48:37;7.23;;;4.07;;
19804;SDS011;10062;51.052;13.756;2023-06-14T07:51:10;5.10;;;3.80;;
19804;SDS011;10062;51.052;13.756;2023-06-14T07:53:41;4.60;;;3.13;;
19804;SDS011;10062;51.052;13.756;2023-06-14T07:56:13;7.17;;;3.37;;
19804;SDS011;10062;51.052;13.756;2023-06-14T07:58:45;5.30;;;3.80;;
19804;SDS011;10062;51.052;13.756;2023-06-14T08:01:17;5.30;;;3.27;;
19804;SDS011;10062;51.052;13.756;2023-06-14T08:03:50;5.53;;;3.33;;
19804;SDS011;10062;51.052;13.756;2023-06-14T08:06:23;5.23;;;2.80;;
19804;SDS011;10062;51.052;13.756;2023-06-14T08:08:55;4.90;;;2.90;;
19804;SDS011;10062;51.052;13.756;2023-06-14T08:11:26;5.23;;;3.20;;
19804;SDS011;10062;51.052;13.756;2023-06-14T08:13:58;5.70;;;2.87;;
19804;SDS011;10062;51.052;13.756;2023-06-14T08:16:30;5.07;;;2.67;;
19804;SDS011;10062;51.052;13.756;2023-06-14T08:19:01;4.37;;;2.50;;
19804;SDS011;10062;51.052;13.756;2023-06-14T08:21:34;5.27;;;2.53;;
19804;SDS011;10062;51.052;13.756;2023-06-14T08:24:06;5.43;;;2.77;;
19804;SDS011;10062;51.052;13.756;2023-06-14T08:26:38;4.53;;;3.10;;
19804;SDS011;10062;51.052;13.756;2023-06-14T08:29:10;4.97;;;2.83;;
19804;SDS011;10062;51.052;13.756;2023-06-14T08:31:41;4.63;;;2.13;;
19804;SDS011;10062;51.052;13.756;2023-06-14T08:34:13;5.10;;;2.53;;
19804;SDS011;10062;51.052;13.756;2023-06-14T08:36:46;4.47;;;2.00;;
19804;SDS011;10062;51.052;13.756;2023-06-14T08:39:18;4.60;;;2.20;;
19804;SDS011;10062;51.052;13.756;2023-06-14T08:41:50;4.13;;;2.10;;
19804;SDS011;10062;51.052;13.756;2023-06-14T08:44:24;3.60;;;2.33;;
19804;SDS011;10062;51.052;13.756;2023-06-14T08:46:56;5.33;;;2.33;;
19804;SDS011;10062;51.052;13.756;2023-06-14T08:49:28;5.10;;;2.70;;
19804;SDS011;10062;51.052;13.756;2023-06-14T08:52:04;4.67;;;2.80;;
19804;SDS011;10062;51.052;13.756;2023-06-14T08:54:40;7.10;;;2.57;;
19804;SDS011;10062;51.052;13.756;2023-06-14T08:57:14;4.40;;;2.40;;
19804;SDS011;10062;51.052;13.756;2023-06-14T08:59:47;5.13;;;2.33;;
19804;SDS011;10062;51.052;13.756;2023-06-14T09:02:22;5.13;;;2.53;;
19804;SDS011;10062;51.052;13.756;2023-06-14T09:04:55;7.77;;;2.90;;
19804;SDS011;10062;51.052;13.756;2023-06-14T09:07:32;4.67;;;3.20;;
19804;SDS011;10062;51.052;13.756;2023-06-14T09:10:07;5.63;;;3.43;;
19804;SDS011;10062;51.052;13.756;2023-06-14T09:12:40;6.60;;;3.27;;
19804;SDS011;10062;51.052;13.756;2023-06-14T09:15:12;5.43;;;2.90;;
19804;SDS011;10062;51.052;13.756;2023-06-14T09:17:44;4.07;;;2.57;;
19804;SDS011;10062;51.052;13.756;2023-06-14T09:20:16;6.73;;;3.00;;
19804;SDS011;10062;51.052;13.756;2023-06-14T09:22:50;9.20;;;6.13;;
19804;SDS011;10062;51.052;13.756;2023-06-14T09:25:21;9.33;;;4.73;;
19804;SDS011;10062;51.052;13.756;2023-06-14T09:27:55;11.03;;;6.17;;
19804;SDS011;10062;51.052;13.756;2023-06-14T09:30:29;6.63;;;3.97;;
19804;SDS011;10062;51.052;13.756;2023-06-14T09:33:01;6.53;;;4.33;;
19804;SDS011;10062;51.052;13.756;2023-06-14T09:35:33;5.20;;;3.23;;
19804;SDS011;10062;51.052;13.756;2023-06-14T09:38:06;5.17;;;2.87;;
19804;SDS011;10062;51.052;13.756;2023-06-14T09:40:37;6.13;;;3.63;;
19804;SDS011;10062;51.052;13.756;2023-06-14T09:43:09;7.07;;;3.63;;
19804;SDS011;10062;51.052;13.756;2023-06-14T09:45:41;6.15;;;4.07;;
19804;SDS011;10062;51.052;13.756;2023-06-14T09:48:15;6.28;;;4.03;;
19804;SDS011;10062;51.052;13.756;2023-06-14T09:50:50;6.25;;;3.65;;
19804;SDS011;10062;51.052;13.756;2023-06-14T09:53:23;5.88;;;3.53;;
19804;SDS011;10062;51.052;13.756;2023-06-14T09:55:55;4.97;;;3.25;;
19804;SDS011;10062;51.052;13.756;2023-06-14T09:58:29;4.88;;;3.58;;
19804;SDS011;10062;51.052;13.756;2023-06-14T10:01:03;7.07;;;4.28;;
19804;SDS011;10062;51.052;13.756;2023-06-14T10:03:39;8.55;;;4.35;;
19804;SDS011;10062;51.052;13.756;2023-06-14T10:06:11;10.85;;;6.50;;
19804;SDS011;10062;51.052;13.756;2023-06-14T10:08:45;5.18;;;3.55;;
19804;SDS011;10062;51.052;13.756;2023-06-14T10:11:17;5.60;;;2.58;;
19804;SDS011;10062;51.052;13.756;2023-06-14T10:13:49;5.50;;;2.38;;
19804;SDS011;10062;51.052;13.756;2023-06-14T10:16:23;4.00;;;2.55;;
19804;SDS011;10062;51.052;13.756;2023-06-14T10:19:00;5.97;;;2.35;;
19804;SDS011;10062;51.052;13.756;2023-06-14T10:21:40;4.78;;;2.58;;
19804;SDS011;10062;51.052;13.756;2023-06-14T10:24:19;4.90;;;2.45;;
19804;SDS011;10062;51.052;13.756;2023-06-14T10:27:00;6.38;;;2.63;;
19804;SDS011;10062;51.052;13.756;2023-06-14T10:29:32;4.72;;;2.22;;
19804;SDS011;10062;51.052;13.756;2023-06-14T10:32:04;7.35;;;3.08;;
19804;SDS011;10062;51.052;13.756;2023-06-14T10:34:38;7.10;;;3.22;;
19804;SDS011;10062;51.052;13.756;2023-06-14T10:37:11;7.15;;;2.75;;
19804;SDS011;10062;51.052;13.756;2023-06-14T10:39:45;7.10;;;4.45;;
19804;SDS011;10062;51.052;13.756;2023-06-14T10:42:17;9.23;;;3.92;;
19804;SDS011;10062;51.052;13.756;2023-06-14T10:44:49;5.50;;;2.40;;
19804;SDS011;10062;51.052;13.756;2023-06-14T10:47:23;5.88;;;2.78;;
19804;SDS011;10062;51.052;13.756;2023-06-14T10:49:57;7.18;;;3.35;;
19804;SDS011;10062;51.052;13.756;2023-06-14T10:52:36;5.65;;;3.30;;
19804;SDS011;10062;51.052;13.756;2023-06-14T10:55:11;5.95;;;3.00;;
19804;SDS011;10062;51.052;13.756;2023-06-14T10:57:45;8.02;;;3.17;;
19804;SDS011;10062;51.052;13.756;2023-06-14T11:00:19;8.27;;;2.58;;
19804;SDS011;10062;51.052;13.756;2023-06-14T11:06:13;4.88;;;2.50;;
19804;SDS011;10062;51.052;13.756;2023-06-14T11:11:46;5.18;;;2.88;;
19804;SDS011;10062;51.052;13.756;2023-06-14T11:14:20;8.80;;;3.38;;
19804;SDS011;10062;51.052;13.756;2023-06-14T11:16:51;7.15;;;3.50;;
19804;SDS011;10062;51.052;13.756;2023-06-14T11:19:23;5.95;;;4.05;;
19804;SDS011;10062;51.052;13.756;2023-06-14T11:21:56;4.80;;;3.42;;
19804;SDS011;10062;51.052;13.756;2023-06-14T11:24:28;5.47;;;3.95;;
19804;SDS011;10062;51.052;13.756;2023-06-14T11:27:01;6.53;;;3.70;;
19804;SDS011;10062;51.052;13.756;2023-06-14T11:29:33;4.03;;;3.10;;
19804;SDS011;10062;51.052;13.756;2023-06-14T11:32:06;7.03;;;3.87;;
19804;SDS011;10062;51.052;13.756;2023-06-14T11:34:42;5.57;;;3.20;;
19804;SDS011;10062;51.052;13.756;2023-06-14T11:37:17;7.60;;;3.60;;
19804;SDS011;10062;51.052;13.756;2023-06-14T11:39:49;5.63;;;3.77;;
19804;SDS011;10062;51.052;13.756;2023-06-14T11:42:22;7.87;;;4.40;;
19804;SDS011;10062;51.052;13.756;2023-06-14T11:44:53;5.53;;;3.53;;
19804;SDS011;10062;51.052;13.756;2023-06-14T11:47:30;4.60;;;3.37;;
19804;SDS011;10062;51.052;13.756;2023-06-14T11:50:03;7.03;;;3.53;;
19804;SDS011;10062;51.052;13.756;2023-06-14T11:52:36;5.57;;;3.53;;
19804;SDS011;10062;51.052;13.756;2023-06-14T11:55:08;8.43;;;3.23;;
19804;SDS011;10062;51.052;13.756;2023-06-14T11:57:42;7.20;;;3.90;;
19804;SDS011;10062;51.052;13.756;2023-06-14T12:00:14;6.37;;;3.30;;
19804;SDS011;10062;51.052;13.756;2023-06-14T12:02:53;4.17;;;2.63;;
19804;SDS011;10062;51.052;13.756;2023-06-14T12:05:27;5.13;;;3.17;;
19804;SDS011;10062;51.052;13.756;2023-06-14T12:07:59;6.50;;;3.60;;
19804;SDS011;10062;51.052;13.756;2023-06-14T12:10:31;6.67;;;3.63;;
19804;SDS011;10062;51.052;13.756;2023-06-14T12:13:12;4.90;;;3.40;;
19804;SDS011;10062;51.052;13.756;2023-06-14T12:15:44;7.37;;;3.20;;
19804;SDS011;10062;51.052;13.756;2023-06-14T12:18:15;6.40;;;3.07;;
19804;SDS011;10062;51.052;13.756;2023-06-14T12:20:50;6.77;;;3.63;;
19804;SDS011;10062;51.052;13.756;2023-06-14T12:23:22;4.63;;;3.03;;
19804;SDS011;10062;51.052;13.756;2023-06-14T12:25:53;6.30;;;3.27;;
19804;SDS011;10062;51.052;13.756;2023-06-14T12:28:28;5.23;;;3.10;;
19804;SDS011;10062;51.052;13.756;2023-06-14T12:31:03;5.37;;;3.20;;
19804;SDS011;10062;51.052;13.756;2023-06-14T12:33:34;4.73;;;2.90;;
19804;SDS011;10062;51.052;13.756;2023-06-14T12:36:06;5.73;;;3.70;;
19804;SDS011;10062;51.052;13.756;2023-06-14T12:38:39;5.47;;;3.80;;
19804;SDS011;10062;51.052;13.756;2023-06-14T12:41:11;7.07;;;3.40;;
19804;SDS011;10062;51.052;13.756;2023-06-14T12:43:45;5.37;;;3.47;;
19804;SDS011;10062;51.052;13.756;2023-06-14T12:46:17;8.10;;;3.40;;
19804;SDS011;10062;51.052;13.756;2023-06-14T12:48:49;5.63;;;4.00;;
19804;SDS011;10062;51.052;13.756;2023-06-14T12:51:20;6.40;;;3.87;;
19804;SDS011;10062;51.052;13.756;2023-06-14T12:53:52;6.97;;;3.80;;
19804;SDS011;10062;51.052;13.756;2023-06-14T12:56:24;5.90;;;3.13;;
19804;SDS011;10062;51.052;13.756;2023-06-14T12:58:57;5.82;;;2.80;;
19804;SDS011;10062;51.052;13.756;2023-06-14T13:01:29;7.60;;;3.27;;
19804;SDS011;10062;51.052;13.756;2023-06-14T13:04:01;4.65;;;3.17;;
19804;SDS011;10062;51.052;13.756;2023-06-14T13:06:32;7.30;;;3.67;;
19804;SDS011;10062;51.052;13.756;2023-06-14T13:09:04;9.90;;;3.80;;
19804;SDS011;10062;51.052;13.756;2023-06-14T13:11:36;6.13;;;2.97;;
19804;SDS011;10062;51.052;13.756;2023-06-14T13:14:09;6.53;;;3.07;;
19804;SDS011;10062;51.052;13.756;2023-06-14T13:16:41;4.33;;;3.03;;
19804;SDS011;10062;51.052;13.756;2023-06-14T13:19:15;6.07;;;4.20;;
19804;SDS011;10062;51.052;13.756;2023-06-14T13:21:47;5.28;;;3.03;;
19804;SDS011;10062;51.052;13.756;2023-06-14T13:24:19;4.65;;;3.17;;
19804;SDS011;10062;51.052;13.756;2023-06-14T13:26:51;7.40;;;5.15;;
19804;SDS011;10062;51.052;13.756;2023-06-14T13:29:24;5.50;;;3.22;;
19804;SDS011;10062;51.052;13.756;2023-06-14T13:31:56;6.50;;;3.60;;
19804;SDS011;10062;51.052;13.756;2023-06-14T13:34:28;6.75;;;3.33;;
19804;SDS011;10062;51.052;13.756;2023-06-14T13:36:59;17.38;;;11.52;;
19804;SDS011;10062;51.052;13.756;2023-06-14T13:39:31;10.32;;;6.85;;
19804;SDS011;10062;51.052;13.756;2023-06-14T13:42:03;7.82;;;4.45;;
19804;SDS011;10062;51.052;13.756;2023-06-14T13:44:36;6.38;;;3.45;;
19804;SDS011;10062;51.052;13.756;2023-06-14T13:47:08;9.18;;;3.17;;
19804;SDS011;10062;51.052;13.756;2023-06-14T13:49:40;4.82;;;3.22;;
19804;SDS011;10062;51.052;13.756;2023-06-14T13:52:12;7.53;;;3.00;;
19804;SDS011;10062;51.052;13.756;2023-06-14T13:54:43;4.97;;;2.65;;
19804;SDS011;10062;51.052;13.756;2023-06-14T13:57:15;5.43;;;2.63;;
19804;SDS011;10062;51.052;13.756;2023-06-14T13:59:48;6.18;;;2.95;;
19804;SDS011;10062;51.052;13.756;2023-06-14T14:02:20;6.57;;;3.53;;
19804;SDS011;10062;51.052;13.756;2023-06-14T14:04:52;6.75;;;2.55;;
19804;SDS011;10062;51.052;13.756;2023-06-14T14:07:24;6.75;;;2.85;;
19804;SDS011;10062;51.052;13.756;2023-06-14T14:09:56;5.35;;;2.78;;
19804;SDS011;10062;51.052;13.756;2023-06-14T14:12:28;4.80;;;3.05;;
19804;SDS011;10062;51.052;13.756;2023-06-14T14:15:01;6.88;;;2.72;;
19804;SDS011;10062;51.052;13.756;2023-06-14T14:17:32;9.98;;;3.22;;
19804;SDS011;10062;51.052;13.756;2023-06-14T14:20:07;7.57;;;2.45;;
19804;SDS011;10062;51.052;13.756;2023-06-14T14:22:39;4.25;;;2.67;;
19804;SDS011;10062;51.052;13.756;2023-06-14T14:25:11;8.52;;;2.78;;
19804;SDS011;10062;51.052;13.756;2023-06-14T14:27:43;4.00;;;2.50;;
19804;SDS011;10062;51.052;13.756;2023-06-14T14:30:16;4.43;;;2.50;;
19804;SDS011;10062;51.052;13.756;2023-06-14T14:32:49;4.10;;;2.58;;
19804;SDS011;10062;51.052;13.756;2023-06-14T14:35:22;7.05;;;2.75;;
19804;SDS011;10062;51.052;13.756;2023-06-14T14:37:56;7.38;;;2.45;;
19804;SDS011;10062;51.052;13.756;2023-06-14T14:40:28;6.30;;;3.03;;
19804;SDS011;10062;51.052;13.756;2023-06-14T14:42:59;5.03;;;2.38;;
19804;SDS011;10062;51.052;13.756;2023-06-14T14:45:32;8.50;;;2.75;;
19804;SDS011;10062;51.052;13.756;2023-06-14T14:48:04;10.25;;;3.47;;
19804;SDS011;10062;51.052;13.756;2023-06-14T14:50:36;5.88;;;2.60;;
19804;SDS011;10062;51.052;13.756;2023-06-14T14:53:08;5.43;;;2.55;;
19804;SDS011;10062;51.052;13.756;2023-06-14T14:55:39;6.72;;;2.75;;
19804;SDS011;10062;51.052;13.756;2023-06-14T14:58:12;5.97;;;2.70;;
19804;SDS011;10062;51.052;13.756;2023-06-14T15:00:48;6.75;;;2.78;;
19804;SDS011;10062;51.052;13.756;2023-06-14T15:03:19;5.68;;;2.80;;
19804;SDS011;10062;51.052;13.756;2023-06-14T15:05:51;4.28;;;2.50;;
19804;SDS011;10062;51.052;13.756;2023-06-14T15:08:23;6.03;;;2.80;;
19804;SDS011;10062;51.052;13.756;2023-06-14T15:10:54;5.15;;;2.80;;
19804;SDS011;10062;51.052;13.756;2023-06-14T15:13:26;4.50;;;2.88;;
19804;SDS011;10062;51.052;13.756;2023-06-14T15:15:59;6.00;;;3.20;;
19804;SDS011;10062;51.052;13.756;2023-06-14T15:18:31;5.65;;;2.88;;